createdAt,value
2022-10-18T00:00:13.115Z,2
2022-10-18T00:01:56.793Z,2
2022-10-18T00:03:40.477Z,2
2022-10-18T00:05:24.185Z,0
2022-10-18T00:07:07.943Z,0
2022-10-18T00:08:51.635Z,0
2022-10-18T00:10:35.305Z,1
2022-10-18T00:12:18.988Z,0
2022-10-18T00:14:02.694Z,0
2022-10-18T00:15:46.392Z,1
2022-10-18T00:17:30.090Z,0
2022-10-18T00:19:13.836Z,0
2022-10-18T00:20:57.529Z,0
2022-10-18T00:22:41.196Z,0
2022-10-18T00:24:24.883Z,0
2022-10-18T00:26:08.581Z,1
2022-10-18T00:27:52.363Z,0
2022-10-18T00:29:36.030Z,0
2022-10-18T00:31:19.719Z,1
2022-10-18T00:33:03.400Z,1
2022-10-18T00:34:47.094Z,1
2022-10-18T00:36:30.803Z,1
2022-10-18T00:38:14.493Z,0
2022-10-18T00:39:58.229Z,0
2022-10-18T00:41:41.919Z,1
2022-10-18T00:43:25.618Z,1
2022-10-18T00:45:09.284Z,0
2022-10-18T00:46:52.995Z,0
2022-10-18T00:48:36.689Z,1
2022-10-18T00:50:20.452Z,0
2022-10-18T00:52:04.124Z,0
2022-10-18T00:53:47.809Z,0
2022-10-18T00:55:31.495Z,1
2022-10-18T00:57:15.196Z,1
2022-10-18T00:58:58.886Z,1
2022-10-18T01:00:42.648Z,1
2022-10-18T01:02:26.328Z,0
2022-10-18T01:04:10.009Z,0
2022-10-18T01:05:53.694Z,0
2022-10-18T01:07:37.380Z,0
2022-10-18T01:09:21.085Z,0
2022-10-18T01:11:04.855Z,0
2022-10-18T01:12:48.531Z,0
2022-10-18T01:14:32.216Z,0
2022-10-18T01:16:15.900Z,0
2022-10-18T01:17:59.612Z,1
2022-10-18T01:19:43.295Z,1
2022-10-18T01:21:27.063Z,0
2022-10-18T01:23:10.737Z,1
2022-10-18T01:24:54.435Z,1
2022-10-18T01:26:38.099Z,0
2022-10-18T01:28:21.812Z,1
2022-10-18T01:30:05.514Z,1
2022-10-18T01:31:49.269Z,0
2022-10-18T01:33:32.945Z,1
2022-10-18T01:35:16.626Z,1
2022-10-18T01:37:00.325Z,0
2022-10-18T01:38:44.030Z,0
2022-10-18T01:40:27.783Z,0
2022-10-18T01:42:11.469Z,1
2022-10-18T01:43:55.157Z,1
2022-10-18T01:45:38.830Z,0
2022-10-18T01:47:22.554Z,0
2022-10-18T01:49:06.230Z,0
2022-10-18T01:50:49.995Z,0
2022-10-18T01:52:33.675Z,0
2022-10-18T01:54:17.357Z,0
2022-10-18T01:56:01.042Z,0
2022-10-18T01:57:44.739Z,0
2022-10-18T01:59:28.448Z,0
2022-10-18T02:01:12.196Z,0
2022-10-18T02:02:55.877Z,1
2022-10-18T02:04:39.555Z,0
2022-10-18T02:06:23.256Z,0
2022-10-18T02:08:06.947Z,0
2022-10-18T02:09:50.648Z,1
2022-10-18T02:11:34.401Z,0
2022-10-18T02:13:18.080Z,0
2022-10-18T02:15:01.777Z,0
2022-10-18T02:16:45.464Z,1
2022-10-18T02:18:29.157Z,0
2022-10-18T02:20:12.867Z,0
2022-10-18T02:21:56.607Z,0
2022-10-18T02:23:40.288Z,0
2022-10-18T02:25:23.980Z,1
2022-10-18T02:27:07.681Z,1
2022-10-18T02:28:51.389Z,0
2022-10-18T02:30:35.129Z,0
2022-10-18T02:32:18.824Z,1
2022-10-18T02:34:02.509Z,0
2022-10-18T02:35:46.196Z,0
2022-10-18T02:37:29.897Z,0
2022-10-18T02:39:13.585Z,0
2022-10-18T02:40:57.335Z,0
2022-10-18T02:42:41.023Z,0
2022-10-18T02:44:24.714Z,1
2022-10-18T02:46:08.407Z,1
2022-10-18T02:47:52.134Z,1
2022-10-18T02:49:35.884Z,0
2022-10-18T02:51:19.545Z,0
2022-10-18T02:53:03.221Z,1
2022-10-18T02:54:46.905Z,0
2022-10-18T02:56:30.605Z,0
2022-10-18T02:58:14.309Z,0
2022-10-18T02:59:57.994Z,0
2022-10-18T03:01:41.741Z,1
2022-10-18T03:03:25.427Z,0
2022-10-18T03:05:09.129Z,0
2022-10-18T03:06:52.807Z,0
2022-10-18T03:08:36.519Z,0
2022-10-18T03:10:20.267Z,0
2022-10-18T03:12:03.950Z,1
2022-10-18T03:13:47.628Z,0
2022-10-18T03:15:31.317Z,0
2022-10-18T03:17:15.016Z,1
2022-10-18T03:18:58.726Z,0
2022-10-18T03:20:42.472Z,0
2022-10-18T03:22:26.155Z,0
2022-10-18T03:24:09.843Z,0
2022-10-18T03:25:53.533Z,1
2022-10-18T03:27:37.230Z,0
2022-10-18T03:29:20.995Z,1
2022-10-18T03:31:04.682Z,1
2022-10-18T03:32:48.361Z,0
2022-10-18T03:34:32.048Z,0
2022-10-18T03:36:15.757Z,0
2022-10-18T03:37:59.447Z,0
2022-10-18T03:39:43.198Z,0
2022-10-18T03:41:26.885Z,0
2022-10-18T03:43:10.578Z,1
2022-10-18T03:44:54.258Z,0
2022-10-18T03:46:37.969Z,1
2022-10-18T03:48:21.659Z,0
2022-10-18T03:50:05.419Z,0
2022-10-18T03:51:49.113Z,0
2022-10-18T03:53:32.775Z,0
2022-10-18T03:55:16.487Z,0
2022-10-18T03:57:00.175Z,0
2022-10-18T03:58:43.861Z,1
2022-10-18T04:00:27.617Z,0
2022-10-18T04:02:11.303Z,0
2022-10-18T04:03:54.976Z,1
2022-10-18T04:05:38.677Z,0
2022-10-18T04:07:22.376Z,0
2022-10-18T04:09:06.151Z,0
2022-10-18T04:10:49.824Z,1
2022-10-18T04:12:33.500Z,0
2022-10-18T04:14:17.200Z,0
2022-10-18T04:16:00.907Z,0
2022-10-18T04:17:44.591Z,0
2022-10-18T04:19:28.377Z,0
2022-10-18T04:21:12.023Z,0
2022-10-18T04:22:55.730Z,0
2022-10-18T04:24:39.408Z,0
2022-10-18T04:26:23.109Z,0
2022-10-18T04:28:06.874Z,0
2022-10-18T04:29:50.555Z,1
2022-10-18T04:31:34.226Z,0
2022-10-18T04:33:17.917Z,0
2022-10-18T04:35:01.643Z,1
2022-10-18T04:36:45.391Z,0
2022-10-18T04:38:29.074Z,0
2022-10-18T04:40:12.756Z,0
2022-10-18T04:41:56.435Z,0
2022-10-18T04:43:40.150Z,1
2022-10-18T04:45:23.846Z,0
2022-10-18T04:47:07.596Z,0
2022-10-18T04:48:51.279Z,0
2022-10-18T04:50:34.955Z,1
2022-10-18T04:52:18.646Z,0
2022-10-18T04:54:02.379Z,0
2022-10-18T04:55:46.051Z,0
2022-10-18T04:57:29.800Z,0
2022-10-18T04:59:13.477Z,0
2022-10-18T05:00:57.161Z,0
2022-10-18T05:02:40.860Z,0
2022-10-18T05:04:24.578Z,0
2022-10-18T05:06:08.323Z,1
2022-10-18T05:07:52.005Z,0
2022-10-18T05:09:35.688Z,0
2022-10-18T05:11:19.393Z,0
2022-10-18T05:13:03.086Z,1
2022-10-18T05:14:46.784Z,0
2022-10-18T05:16:30.530Z,0
2022-10-18T05:18:14.215Z,0
2022-10-18T05:19:57.892Z,1
2022-10-18T05:21:41.580Z,0
2022-10-18T05:23:25.317Z,0
2022-10-18T05:25:09.054Z,0
2022-10-18T05:26:52.733Z,1
2022-10-18T05:28:36.423Z,1
2022-10-18T05:30:20.111Z,1
2022-10-18T05:32:03.802Z,1
2022-10-18T05:33:47.512Z,2
2022-10-18T05:35:31.261Z,0
2022-10-18T05:37:14.958Z,0
2022-10-18T05:38:58.631Z,1
2022-10-18T05:40:42.324Z,1
2022-10-18T05:42:26.008Z,1
2022-10-18T05:44:09.717Z,1
2022-10-18T05:45:53.462Z,1
2022-10-18T05:47:37.146Z,1
2022-10-18T05:49:20.821Z,2
2022-10-18T05:51:04.531Z,2
2022-10-18T05:52:48.232Z,2
2022-10-18T05:54:31.983Z,2
2022-10-18T05:56:15.669Z,3
2022-10-18T05:57:59.356Z,3
2022-10-18T05:59:43.052Z,4
2022-10-18T06:01:26.787Z,4
2022-10-18T06:03:10.443Z,5
2022-10-18T06:04:54.195Z,6
2022-10-18T06:06:37.872Z,6
2022-10-18T06:08:21.552Z,7
2022-10-18T06:10:05.235Z,7
2022-10-18T06:11:48.952Z,7
2022-10-18T06:13:32.722Z,7
2022-10-18T06:15:16.398Z,9
2022-10-18T06:17:00.078Z,9
2022-10-18T06:18:43.760Z,10
2022-10-18T06:20:27.475Z,12
2022-10-18T06:22:11.181Z,11
2022-10-18T06:23:54.844Z,9
2022-10-18T06:25:38.605Z,9
2022-10-18T06:27:22.397Z,10
2022-10-18T06:29:06.027Z,9
2022-10-18T06:30:49.652Z,10
2022-10-18T06:32:33.364Z,10
2022-10-18T06:34:17.057Z,12
2022-10-18T06:36:00.811Z,14
2022-10-18T06:37:44.488Z,17
2022-10-18T06:39:28.176Z,22
2022-10-18T06:41:11.863Z,21
2022-10-18T06:42:55.564Z,22
2022-10-18T06:44:39.266Z,26
2022-10-18T06:46:22.950Z,27
2022-10-18T06:48:06.751Z,29
2022-10-18T06:49:50.371Z,33
2022-10-18T06:51:34.052Z,38
2022-10-18T06:53:17.753Z,44
2022-10-18T06:55:01.462Z,49
2022-10-18T06:56:45.215Z,58
2022-10-18T06:58:28.898Z,64
2022-10-18T07:00:12.624Z,66
2022-10-18T07:01:56.267Z,61
2022-10-18T07:03:39.978Z,57
2022-10-18T07:05:23.685Z,59
2022-10-18T07:07:07.427Z,65
2022-10-18T07:08:51.109Z,68
2022-10-18T07:10:34.784Z,74
2022-10-18T07:12:18.470Z,76
2022-10-18T07:14:02.173Z,776
2022-10-18T07:15:45.868Z,775
2022-10-18T07:17:29.629Z,776
2022-10-18T07:19:13.308Z,775
2022-10-18T07:20:56.989Z,775
2022-10-18T07:22:40.684Z,776
2022-10-18T07:24:24.373Z,776
2022-10-18T07:26:08.079Z,775
2022-10-18T07:27:51.834Z,776
2022-10-18T07:29:35.515Z,776
2022-10-18T07:31:19.238Z,776
2022-10-18T07:33:02.879Z,776
2022-10-18T07:34:46.571Z,776
2022-10-18T07:36:30.287Z,776
2022-10-18T07:38:14.095Z,776
2022-10-18T07:39:57.724Z,776
2022-10-18T07:41:41.399Z,776
2022-10-18T07:43:25.100Z,776
2022-10-18T07:45:08.809Z,774
2022-10-18T07:46:52.481Z,776
2022-10-18T07:48:36.242Z,776
2022-10-18T07:50:19.924Z,776
2022-10-18T07:52:03.623Z,775
2022-10-18T07:53:47.290Z,777
2022-10-18T07:55:31.005Z,776
2022-10-18T07:57:14.710Z,776
2022-10-18T07:58:58.444Z,776
2022-10-18T08:00:42.125Z,776
2022-10-18T08:02:25.831Z,776
2022-10-18T08:04:09.536Z,777
2022-10-18T08:05:53.233Z,776
2022-10-18T08:07:36.971Z,776
2022-10-18T08:09:20.651Z,776
2022-10-18T08:11:04.345Z,776
2022-10-18T08:12:48.035Z,777
2022-10-18T08:14:31.751Z,777
2022-10-18T08:16:15.521Z,777
2022-10-18T08:17:59.172Z,777
2022-10-18T08:19:42.863Z,777
2022-10-18T08:21:26.571Z,776
2022-10-18T08:23:10.265Z,777
2022-10-18T08:24:54.017Z,776
2022-10-18T08:26:37.696Z,777
2022-10-18T08:28:21.379Z,777
2022-10-18T08:30:05.088Z,776
2022-10-18T08:31:48.855Z,778
2022-10-18T08:33:32.622Z,776
2022-10-18T08:35:16.314Z,777
2022-10-18T08:37:00.035Z,776
2022-10-18T08:38:43.709Z,777
2022-10-18T08:40:27.272Z,777
2022-10-18T08:42:11.113Z,778
2022-10-18T08:43:54.892Z,777
2022-10-18T08:45:38.576Z,778
2022-10-18T08:47:22.255Z,777
2022-10-18T08:49:05.928Z,777
2022-10-18T08:50:49.626Z,777
2022-10-18T08:52:33.198Z,777
2022-10-18T08:54:16.981Z,778
2022-10-18T08:56:00.777Z,777
2022-10-18T08:57:44.462Z,777
2022-10-18T08:59:28.133Z,775
2022-10-18T09:01:11.766Z,778
2022-10-18T09:02:55.410Z,778
2022-10-18T09:04:39.159Z,779
2022-10-18T09:06:22.837Z,777
2022-10-18T09:08:06.670Z,777
2022-10-18T09:09:50.328Z,778
2022-10-18T09:11:33.942Z,777
2022-10-18T09:13:17.609Z,778
2022-10-18T09:15:01.412Z,777
2022-10-18T09:16:45.046Z,777
2022-10-18T09:18:28.742Z,778
2022-10-18T09:20:12.429Z,778
2022-10-18T09:21:56.128Z,778
2022-10-18T09:23:39.957Z,777
2022-10-18T09:25:23.667Z,778
2022-10-18T09:27:07.390Z,778
2022-10-18T09:28:50.926Z,778
2022-10-18T09:30:34.666Z,777
2022-10-18T09:32:18.433Z,778
2022-10-18T09:34:02.035Z,777
2022-10-18T09:35:45.775Z,778
2022-10-18T09:37:29.458Z,778
2022-10-18T09:39:13.131Z,777
2022-10-18T09:40:56.843Z,778
2022-10-18T09:42:40.575Z,778
2022-10-18T09:44:24.271Z,779
2022-10-18T09:46:07.978Z,778
2022-10-18T09:47:51.656Z,778
2022-10-18T09:49:35.350Z,778
2022-10-18T09:51:19.052Z,777
2022-10-18T09:53:02.846Z,778
2022-10-18T09:54:46.551Z,778
2022-10-18T09:56:30.226Z,778
2022-10-18T09:58:13.872Z,778
2022-10-18T09:59:57.545Z,778
2022-10-18T10:01:41.258Z,778
2022-10-18T10:03:25.013Z,778
2022-10-18T10:05:08.727Z,778
2022-10-18T10:06:52.385Z,778
2022-10-18T10:08:36.091Z,778
2022-10-18T10:10:19.758Z,778
2022-10-18T10:12:03.474Z,778
2022-10-18T10:13:47.165Z,778
2022-10-18T10:15:30.847Z,777
2022-10-18T10:17:14.628Z,777
2022-10-18T10:18:58.305Z,777
2022-10-18T10:20:41.958Z,779
2022-10-18T10:22:25.660Z,778
2022-10-18T10:24:09.419Z,778
2022-10-18T10:25:53.114Z,777
2022-10-18T10:27:36.885Z,778
2022-10-18T10:29:20.479Z,778
2022-10-18T10:31:04.157Z,779
2022-10-18T10:32:47.864Z,775
2022-10-18T10:34:31.588Z,778
2022-10-18T10:36:15.343Z,778
2022-10-18T10:37:59.031Z,778
2022-10-18T10:39:42.696Z,778
2022-10-18T10:41:26.373Z,778
2022-10-18T10:43:10.102Z,778
2022-10-18T10:44:53.847Z,780
2022-10-18T10:46:37.534Z,778
2022-10-18T10:48:21.212Z,778
2022-10-18T10:50:05.003Z,778
2022-10-18T10:51:48.654Z,779
2022-10-18T10:53:32.375Z,778
2022-10-18T10:55:16.052Z,778
2022-10-18T10:56:59.734Z,778
2022-10-18T10:58:43.427Z,778
2022-10-18T11:00:27.116Z,777
2022-10-18T11:02:10.822Z,778
2022-10-18T11:03:54.582Z,778
2022-10-18T11:05:38.272Z,778
2022-10-18T11:07:21.962Z,778
2022-10-18T11:09:05.664Z,778
2022-10-18T11:10:49.360Z,778
2022-10-18T11:12:33.134Z,777
2022-10-18T11:14:16.781Z,778
2022-10-18T11:16:00.479Z,777
2022-10-18T11:17:44.260Z,778
2022-10-18T11:19:27.851Z,778
2022-10-18T11:21:11.645Z,777
2022-10-18T11:22:55.302Z,778
2022-10-18T11:24:39.018Z,778
2022-10-18T11:26:22.662Z,779
2022-10-18T11:28:06.380Z,779
2022-10-18T11:29:50.082Z,779
2022-10-18T11:31:33.822Z,778
2022-10-18T11:33:17.534Z,778
2022-10-18T11:35:01.198Z,778
2022-10-18T11:36:44.874Z,778
2022-10-18T11:40:12.269Z,779
2022-10-18T11:41:55.970Z,779
2022-10-18T11:43:39.741Z,779
2022-10-18T11:45:23.424Z,776
2022-10-18T11:47:07.073Z,778
2022-10-18T11:48:50.788Z,778
2022-10-18T11:50:34.556Z,779
2022-10-18T11:52:18.245Z,778
2022-10-18T11:54:01.922Z,779
2022-10-18T11:55:45.598Z,778
2022-10-18T11:57:29.303Z,779
2022-10-18T11:59:13.042Z,779
2022-10-18T12:00:56.802Z,779
2022-10-18T12:02:40.445Z,778
2022-10-18T12:04:24.180Z,779
2022-10-18T12:06:07.819Z,778
2022-10-18T12:07:51.498Z,778
2022-10-18T12:09:35.218Z,779
2022-10-18T12:11:18.966Z,778
2022-10-18T12:13:02.650Z,779
2022-10-18T12:14:46.326Z,778
2022-10-18T12:16:30.012Z,779
2022-10-18T12:18:13.712Z,779
2022-10-18T12:19:57.403Z,779
2022-10-18T12:21:41.172Z,779
2022-10-18T12:23:24.872Z,779
2022-10-18T12:25:08.541Z,778
2022-10-18T12:26:52.217Z,778
2022-10-18T12:28:35.905Z,778
2022-10-18T12:30:19.605Z,779
2022-10-18T12:32:03.305Z,778
2022-10-18T12:33:47.086Z,779
2022-10-18T12:35:30.759Z,779
2022-10-18T12:37:14.426Z,780
2022-10-18T12:38:58.108Z,779
2022-10-18T12:40:41.818Z,778
2022-10-18T12:42:25.585Z,778
2022-10-18T12:44:09.264Z,778
2022-10-18T12:45:52.942Z,778
2022-10-18T12:47:36.640Z,778
2022-10-18T12:49:20.340Z,778
2022-10-18T12:51:04.066Z,778
2022-10-18T12:52:47.786Z,779
2022-10-18T12:54:31.588Z,778
2022-10-18T12:56:15.154Z,778
2022-10-18T12:57:58.861Z,779
2022-10-18T12:59:42.558Z,779
2022-10-18T13:01:26.245Z,779
2022-10-18T13:03:10.002Z,779
2022-10-18T13:04:53.670Z,778
2022-10-18T13:06:37.355Z,779
2022-10-18T13:08:21.055Z,778
2022-10-18T13:10:04.758Z,775
2022-10-18T13:11:48.434Z,770
2022-10-18T13:13:32.200Z,732
2022-10-18T13:15:15.880Z,667
2022-10-18T13:16:59.563Z,684
2022-10-18T13:18:43.245Z,696
2022-10-18T13:20:26.963Z,778
2022-10-18T13:22:10.729Z,778
2022-10-18T13:23:54.403Z,778
2022-10-18T13:25:38.085Z,778
2022-10-18T13:27:21.760Z,778
2022-10-18T13:29:05.635Z,779
2022-10-18T13:30:49.161Z,777
2022-10-18T13:32:32.904Z,778
2022-10-18T13:34:16.633Z,778
2022-10-18T13:36:00.285Z,778
2022-10-18T13:37:43.979Z,776
2022-10-18T13:39:27.662Z,778
2022-10-18T13:41:11.495Z,779
2022-10-18T13:42:55.073Z,779
2022-10-18T13:44:38.809Z,778
2022-10-18T13:46:22.495Z,778
2022-10-18T13:48:06.177Z,676
2022-10-18T13:49:49.916Z,778
2022-10-18T13:51:33.586Z,778
2022-10-18T13:53:17.345Z,778
2022-10-18T13:55:01.016Z,672
2022-10-18T13:56:44.698Z,535
2022-10-18T13:58:28.385Z,496
2022-10-18T14:00:12.100Z,768
2022-10-18T14:01:55.812Z,671
2022-10-18T14:03:39.582Z,628
2022-10-18T14:05:23.222Z,777
2022-10-18T14:07:06.917Z,778
2022-10-18T14:08:50.603Z,778
2022-10-18T14:10:34.305Z,777
2022-10-18T14:12:17.995Z,778
2022-10-18T14:14:01.741Z,777
2022-10-18T14:15:45.442Z,778
2022-10-18T14:17:29.239Z,776
2022-10-18T14:19:12.878Z,777
2022-10-18T14:20:56.522Z,778
2022-10-18T14:22:40.266Z,588
2022-10-18T14:24:23.949Z,777
2022-10-18T14:26:07.628Z,778
2022-10-18T14:27:51.343Z,777
2022-10-18T14:29:35.043Z,777
2022-10-18T14:31:18.798Z,778
2022-10-18T14:33:02.515Z,778
2022-10-18T14:34:46.157Z,778
2022-10-18T14:36:29.843Z,778
2022-10-18T14:38:13.562Z,778
2022-10-18T14:39:57.244Z,778
2022-10-18T14:41:40.998Z,777
2022-10-18T14:43:24.685Z,778
2022-10-18T14:45:08.358Z,778
2022-10-18T14:46:52.044Z,778
2022-10-18T14:48:35.757Z,779
2022-10-18T14:50:19.525Z,778
2022-10-18T14:52:03.216Z,778
2022-10-18T14:53:46.885Z,777
2022-10-18T14:55:30.563Z,777
2022-10-18T14:57:14.278Z,777
2022-10-18T14:58:57.956Z,777
2022-10-18T15:00:41.744Z,777
2022-10-18T15:02:25.452Z,777
2022-10-18T15:04:09.095Z,776
2022-10-18T15:05:52.766Z,777
2022-10-18T15:07:36.485Z,779
2022-10-18T15:09:20.184Z,778
2022-10-18T15:11:03.869Z,777
2022-10-18T15:12:47.652Z,778
2022-10-18T15:14:31.296Z,713
2022-10-18T15:16:14.978Z,642
2022-10-18T15:17:58.717Z,615
2022-10-18T15:19:42.468Z,591
2022-10-18T15:21:26.166Z,529
2022-10-18T15:23:09.813Z,434
2022-10-18T15:24:53.498Z,367
2022-10-18T15:26:37.212Z,330
2022-10-18T15:28:20.911Z,309
2022-10-18T15:30:04.670Z,309
2022-10-18T15:31:48.361Z,314
2022-10-18T15:33:32.029Z,314
2022-10-18T15:35:15.753Z,313
2022-10-18T15:36:59.444Z,311
2022-10-18T15:38:43.181Z,312
2022-10-18T15:40:26.881Z,309
2022-10-18T15:42:10.557Z,293
2022-10-18T15:43:54.248Z,304
2022-10-18T15:45:38.044Z,315
2022-10-18T15:47:21.759Z,309
2022-10-18T15:49:05.414Z,306
2022-10-18T15:50:49.071Z,285
2022-10-18T15:52:32.746Z,263
2022-10-18T15:54:16.459Z,234
2022-10-18T15:56:00.158Z,200
2022-10-18T15:57:43.912Z,178
2022-10-18T15:59:27.593Z,159
2022-10-18T16:01:11.276Z,137
2022-10-18T16:02:54.982Z,126
2022-10-18T16:04:38.680Z,112
2022-10-18T16:06:22.379Z,101
2022-10-18T16:08:06.123Z,93
2022-10-18T16:09:49.797Z,79
2022-10-18T16:11:33.491Z,67
2022-10-18T16:13:17.213Z,58
2022-10-18T16:15:00.898Z,69
2022-10-18T16:16:44.639Z,63
2022-10-18T16:18:28.334Z,54
2022-10-18T16:20:12.011Z,47
2022-10-18T16:21:55.794Z,40
2022-10-18T16:23:39.407Z,777
2022-10-18T16:25:23.104Z,480
2022-10-18T16:27:06.849Z,584
2022-10-18T16:28:50.530Z,497
2022-10-18T16:30:34.226Z,393
2022-10-18T16:32:17.911Z,636
2022-10-18T16:34:01.626Z,561
2022-10-18T16:35:45.367Z,535
2022-10-18T16:37:29.050Z,498
2022-10-18T16:39:12.737Z,579
2022-10-18T16:40:56.421Z,573
2022-10-18T16:42:40.140Z,478
2022-10-18T16:44:23.907Z,646
2022-10-18T16:46:07.598Z,356
2022-10-18T16:47:51.253Z,777
2022-10-18T16:49:34.953Z,777
2022-10-18T16:51:18.655Z,774
2022-10-18T16:53:02.352Z,774
2022-10-18T16:54:46.096Z,777
2022-10-18T16:56:29.781Z,777
2022-10-18T16:58:13.591Z,776
2022-10-18T16:59:57.158Z,768
2022-10-18T17:01:40.872Z,493
2022-10-18T17:03:24.594Z,777
2022-10-18T17:05:08.358Z,777
2022-10-18T17:06:51.983Z,774
2022-10-18T17:08:35.679Z,777
2022-10-18T17:10:19.396Z,776
2022-10-18T17:12:03.202Z,777
2022-10-18T17:13:46.864Z,774
2022-10-18T17:15:30.510Z,777
2022-10-18T17:17:14.216Z,777
2022-10-18T17:18:57.889Z,777
2022-10-18T17:20:41.609Z,775
2022-10-18T17:22:25.356Z,777
2022-10-18T17:24:09.033Z,777
2022-10-18T17:25:52.724Z,777
2022-10-18T17:27:36.420Z,777
2022-10-18T17:29:20.137Z,777
2022-10-18T17:31:03.878Z,777
2022-10-18T17:32:47.569Z,777
2022-10-18T17:34:31.282Z,777
2022-10-18T17:36:14.931Z,777
2022-10-18T17:37:58.721Z,777
2022-10-18T17:39:42.403Z,777
2022-10-18T17:41:26.149Z,777
2022-10-18T17:43:09.766Z,777
2022-10-18T17:44:53.464Z,778
2022-10-18T17:46:37.169Z,777
2022-10-18T17:48:20.843Z,776
2022-10-18T17:50:04.607Z,777
2022-10-18T17:51:48.444Z,777
2022-10-18T17:53:31.976Z,777
2022-10-18T17:55:15.712Z,777
2022-10-18T17:56:59.370Z,777
2022-10-18T17:58:43.067Z,777
2022-10-18T18:00:26.811Z,777
2022-10-18T18:02:10.493Z,777
2022-10-18T18:03:54.179Z,777
2022-10-18T18:05:37.878Z,777
2022-10-18T18:07:21.579Z,777
2022-10-18T18:09:05.279Z,777
2022-10-18T18:10:49.028Z,777
2022-10-18T18:12:32.700Z,777
2022-10-18T18:14:16.385Z,777
2022-10-18T18:16:00.094Z,777
2022-10-18T18:17:43.802Z,777
2022-10-18T18:19:27.546Z,777
2022-10-18T18:21:11.228Z,777
2022-10-18T18:22:54.930Z,777
2022-10-18T18:24:38.597Z,777
2022-10-18T18:26:22.333Z,776
2022-10-18T18:28:06.069Z,777
2022-10-18T18:29:49.689Z,777
2022-10-18T18:31:33.430Z,777
2022-10-18T18:33:17.110Z,777
2022-10-18T18:35:00.810Z,776
2022-10-18T18:36:44.496Z,777
2022-10-18T18:38:28.222Z,777
2022-10-18T18:40:11.950Z,777
2022-10-18T18:41:55.675Z,776
2022-10-18T18:43:39.310Z,777
2022-10-18T18:45:23.014Z,3
2022-10-18T18:47:06.736Z,3
2022-10-18T18:48:50.530Z,3
2022-10-18T18:50:34.154Z,3
2022-10-18T18:52:17.835Z,3
2022-10-18T18:54:01.542Z,3
2022-10-18T18:55:45.234Z,3
2022-10-18T18:57:28.917Z,3
2022-10-18T18:59:12.708Z,3
2022-10-18T19:00:56.369Z,3
2022-10-18T19:02:40.072Z,3
2022-10-18T19:04:23.752Z,3
2022-10-18T19:06:07.478Z,3
2022-10-18T19:07:51.145Z,4
2022-10-18T19:09:34.912Z,3
2022-10-18T19:11:18.615Z,3
2022-10-18T19:13:02.249Z,3
2022-10-18T19:14:45.960Z,4
2022-10-18T19:16:29.666Z,3
2022-10-18T19:18:13.409Z,4
2022-10-18T19:19:57.093Z,4
2022-10-18T19:21:40.769Z,3
2022-10-18T19:23:24.482Z,4
2022-10-18T19:25:08.175Z,3
2022-10-18T19:26:51.875Z,3
2022-10-18T19:28:35.678Z,3
2022-10-18T19:30:19.305Z,3
2022-10-18T19:32:03.031Z,3
2022-10-18T19:33:46.682Z,3
2022-10-18T19:35:30.458Z,3
2022-10-18T19:37:14.141Z,4
2022-10-18T19:38:57.823Z,4
2022-10-18T19:40:41.507Z,3
2022-10-18T19:42:25.227Z,4
2022-10-18T19:44:08.910Z,4
2022-10-18T19:45:52.731Z,3
2022-10-18T19:47:36.424Z,3
2022-10-18T19:49:20.081Z,4
2022-10-18T19:51:03.720Z,3
2022-10-18T19:52:47.498Z,4
2022-10-18T19:54:31.257Z,3
2022-10-18T19:56:14.988Z,3
2022-10-18T19:57:58.550Z,3
2022-10-18T19:59:42.310Z,3
2022-10-18T20:01:25.942Z,4
2022-10-18T20:03:09.790Z,3
2022-10-18T20:04:53.429Z,4
2022-10-18T20:06:37.174Z,4
2022-10-18T20:08:20.779Z,3
2022-10-18T20:10:04.476Z,3
2022-10-18T20:11:48.170Z,3
2022-10-18T20:13:31.949Z,3
2022-10-18T20:15:15.623Z,2
2022-10-18T20:16:59.274Z,3
2022-10-18T20:18:42.961Z,3
2022-10-18T20:20:26.647Z,4
2022-10-18T20:22:10.383Z,5
2022-10-18T20:23:54.171Z,3
2022-10-18T20:25:37.835Z,4
2022-10-18T20:27:21.631Z,3
2022-10-18T20:29:05.212Z,3
2022-10-18T20:30:48.905Z,4
2022-10-18T20:32:32.568Z,4
2022-10-18T20:34:16.339Z,3
2022-10-18T20:36:00.010Z,4
2022-10-18T20:37:43.759Z,3
2022-10-18T20:39:27.472Z,3
2022-10-18T20:41:11.074Z,4
2022-10-18T20:42:54.875Z,4
2022-10-18T20:44:38.579Z,4
2022-10-18T20:46:22.225Z,2
2022-10-18T20:48:05.935Z,3
2022-10-18T20:49:49.586Z,4
2022-10-18T20:51:33.282Z,3
2022-10-18T20:53:16.979Z,3
2022-10-18T20:55:00.740Z,3
2022-10-18T20:56:44.420Z,3
2022-10-18T20:58:28.152Z,3
2022-10-18T21:00:11.823Z,3
2022-10-18T21:01:55.536Z,3
2022-10-18T21:03:39.288Z,4
2022-10-18T21:05:22.943Z,4
2022-10-18T21:07:06.648Z,3
2022-10-18T21:08:50.306Z,4
2022-10-18T21:10:34.046Z,3
2022-10-18T21:12:17.723Z,4
2022-10-18T21:14:01.462Z,4
2022-10-18T21:15:45.141Z,3
2022-10-18T21:17:28.832Z,3
2022-10-18T21:19:12.531Z,2
2022-10-18T21:20:56.369Z,3
2022-10-18T21:22:40.001Z,3
2022-10-18T21:24:23.675Z,4
2022-10-18T21:26:07.351Z,3
2022-10-18T21:27:51.058Z,3
2022-10-18T21:29:34.780Z,4
2022-10-18T21:31:18.495Z,4
2022-10-18T21:33:02.202Z,5
2022-10-18T21:34:45.892Z,4
2022-10-18T21:36:29.572Z,4
2022-10-18T21:38:13.276Z,4
2022-10-18T21:39:57.046Z,4
2022-10-18T21:41:40.732Z,4
2022-10-18T21:43:24.398Z,3
2022-10-18T21:45:08.082Z,3
2022-10-18T21:46:51.796Z,3
2022-10-18T21:48:35.488Z,4
2022-10-18T21:50:19.251Z,3
2022-10-18T21:52:02.925Z,3
2022-10-18T21:53:46.621Z,3
2022-10-18T21:55:30.296Z,4
2022-10-18T21:57:14.004Z,3
2022-10-18T21:58:57.698Z,3
2022-10-18T22:00:41.458Z,4
2022-10-18T22:02:25.129Z,4
2022-10-18T22:04:08.811Z,4
2022-10-18T22:05:52.518Z,3
2022-10-18T22:07:36.223Z,4
2022-10-18T22:09:19.969Z,3
2022-10-18T22:11:03.650Z,3
2022-10-18T22:12:47.352Z,3
2022-10-18T22:14:31.033Z,4
2022-10-18T22:16:14.723Z,4
2022-10-18T22:17:58.495Z,4
2022-10-18T22:19:42.176Z,3
2022-10-18T22:21:25.853Z,4
2022-10-18T22:23:09.550Z,4
2022-10-18T22:24:53.266Z,3
2022-10-18T22:26:36.960Z,3
2022-10-18T22:28:20.706Z,4
2022-10-18T22:30:04.406Z,4
2022-10-18T22:31:48.114Z,776
2022-10-18T22:33:31.766Z,3
2022-10-18T22:35:15.602Z,3
2022-10-18T22:36:59.283Z,3
2022-10-18T22:38:42.931Z,3
2022-10-18T22:40:26.582Z,3
2022-10-18T22:42:10.389Z,3
2022-10-18T22:43:54.007Z,2
2022-10-18T22:45:37.757Z,2
2022-10-18T22:47:21.455Z,3
2022-10-18T22:49:05.158Z,2
2022-10-18T22:50:48.812Z,2
2022-10-18T22:52:32.501Z,2
2022-10-18T22:54:16.209Z,2
2022-10-18T22:55:59.950Z,3
2022-10-18T22:57:43.631Z,1
2022-10-18T22:59:27.324Z,2
2022-10-18T23:01:11.031Z,1
2022-10-18T23:02:54.725Z,2
2022-10-18T23:04:38.492Z,2
2022-10-18T23:06:22.157Z,2
2022-10-18T23:08:05.833Z,2
2022-10-18T23:09:49.536Z,2
2022-10-18T23:11:33.229Z,1
2022-10-18T23:13:17.008Z,2
2022-10-18T23:15:00.731Z,2
2022-10-18T23:16:44.362Z,2
2022-10-18T23:18:28.094Z,2
2022-10-18T23:20:11.755Z,1
2022-10-18T23:21:55.452Z,1
2022-10-18T23:23:39.202Z,2
2022-10-18T23:25:22.885Z,2
2022-10-18T23:27:06.570Z,2
2022-10-18T23:28:50.273Z,2
2022-10-18T23:30:33.999Z,2
2022-10-18T23:32:17.732Z,1
2022-10-18T23:34:01.415Z,3
2022-10-18T23:35:45.088Z,1
2022-10-18T23:37:28.795Z,3
2022-10-18T23:39:12.505Z,3
2022-10-18T23:40:56.260Z,2
2022-10-18T23:42:39.945Z,2
2022-10-18T23:44:23.615Z,2
2022-10-18T23:46:07.326Z,2
2022-10-18T23:47:51.006Z,2
2022-10-18T23:49:34.705Z,2
2022-10-18T23:51:18.451Z,3
2022-10-18T23:53:02.142Z,2
2022-10-18T23:54:45.819Z,2
2022-10-18T23:56:29.513Z,2
2022-10-18T23:58:13.235Z,2
2022-10-18T23:59:56.908Z,2
